勝利の女神!!

LUXURY FLIGHT

03-6423-7371

羽田本店:東京都大田区羽田5-11-1
営業時間:10:00~20:00
定休日:毎週 月曜日
セントレア店:愛知県常滑市セントレア1-1
営業時間:10:00~20:00 年中無休

lv

勝利の女神!!

STAFF BLOG

2019/10/30 勝利の女神!!

セントレア店からこんにちはーーーー

 

さてさて、昨夜のMETARは…(私が個人的にすごく寒く感じたので…笑)

RJGG 290900Z 02007KT 9999 FEW015 SCT045 16/14 Q1014 NOSIG

 

あれ、意外とそうでもなかったです。

ヒト桁に近い気温かと思ったのですが…

 

 

福岡からお越しのKさま親子

体験してくれたのは、お兄ちゃん!

お母様と妹ちゃんが、バックシートから応援です!

 

離陸前から、

 

「お兄ちゃんがんばれ〜!がんばれ〜〜〜!!!」

 

 

バックシートの妹ちゃんの、あたたか〜いご声援!!

お兄ちゃんも、当店スタッフも頑張っちゃいます

というか頑張れますともっっっ

 

私にも、こんなやさしい妹が欲しかったなあ…。

 

まあ、私は末っ子なんですけどね!

 

お兄ちゃんは、人生初のマニュアルフライトに苦戦しながらも、

声援のおかげで、どんどん安定していき、

ランディングもピタッと決めてくれて、体験終了

 

 

kasiwabara

 

 

最後に、ニコニコで記念写真をパチリっ!

スタンプで隠すのがもったいないくらい

最高の笑顔をありがとうございます!!!

 

 遠方よりお越しくださり、また、

あたたかいフライトをご一緒させて頂きまして、本当にありがとうございました!

 

弊社は、操縦体験中、お連れの方もコクピット内の後方の座席からご覧頂けまして、

お写真もご自由にお撮り頂けます!

(なお、コクピットの構造上、一度のご見学は4〜5名様が限界と思われます。

また、動画撮影は原則禁止とさせて頂いております。併せてご了承ください。)

 

皆さまのご来店・ご体験・ご声援を、スタッフ一同、心よりお待ち致しております!

 

 

いつもブログを読んでくださり本当にありがとうございます。

 

 

「感謝」

TOP